createdAt,value
2022-12-15T00:02:17.173Z,7.47
2022-12-15T00:05:02.281Z,6.60
2022-12-15T00:07:47.604Z,7.53
2022-12-15T00:10:34.520Z,7.55
2022-12-15T00:13:19.570Z,7.15
2022-12-15T00:16:05.829Z,7.53
2022-12-15T00:18:50.938Z,8.32
2022-12-15T00:21:36.562Z,10.63
2022-12-15T00:24:21.798Z,9.07
2022-12-15T00:27:06.553Z,8.30
2022-12-15T00:29:51.496Z,7.45
2022-12-15T00:32:36.541Z,7.82
2022-12-15T00:35:21.704Z,7.43
2022-12-15T00:38:07.891Z,6.88
2022-12-15T00:40:35.057Z,7.00
2022-12-15T00:43:01.695Z,6.38
2022-12-15T00:45:48.326Z,6.32
2022-12-15T00:48:14.991Z,6.53
2022-12-15T00:50:54.573Z,6.38
2022-12-15T00:53:40.845Z,6.75
2022-12-15T00:56:26.827Z,6.88
2022-12-15T00:59:12.186Z,6.30
2022-12-15T01:01:57.472Z,7.07
2022-12-15T01:04:42.531Z,7.60
2022-12-15T01:07:27.915Z,7.65
2022-12-15T01:10:13.093Z,7.50
2022-12-15T01:12:58.610Z,8.15
2022-12-15T01:15:43.816Z,7.95
2022-12-15T01:18:28.976Z,8.18
2022-12-15T01:21:00.275Z,8.38
2022-12-15T01:23:27.777Z,7.30
2022-12-15T01:25:55.881Z,8.60
2022-12-15T01:28:22.999Z,8.13
2022-12-15T01:30:49.852Z,8.75
2022-12-15T01:33:18.465Z,8.95
2022-12-15T01:35:45.430Z,13.80
2022-12-15T01:38:12.025Z,14.32
2022-12-15T01:40:50.242Z,13.82
2022-12-15T01:43:22.828Z,10.18
2022-12-15T01:45:57.513Z,9.40
2022-12-15T01:48:29.688Z,10.52
2022-12-15T01:51:04.262Z,10.40
2022-12-15T01:53:36.003Z,10.32
2022-12-15T01:56:05.972Z,10.18
2022-12-15T01:58:32.999Z,7.57
2022-12-15T02:01:02.296Z,7.40
2022-12-15T02:03:30.425Z,7.60
2022-12-15T02:06:00.794Z,7.22
2022-12-15T02:08:28.022Z,8.10
2022-12-15T02:10:56.206Z,9.93
2022-12-15T02:13:35.289Z,10.02
2022-12-15T02:16:12.300Z,9.48
2022-12-15T02:18:52.099Z,7.75
2022-12-15T02:21:27.182Z,7.85
2022-12-15T02:24:15.347Z,7.18
2022-12-15T02:27:13.661Z,5.18
2022-12-15T02:29:46.175Z,4.38
2022-12-15T02:32:21.015Z,5.43
2022-12-15T02:35:02.014Z,5.97
2022-12-15T02:37:37.734Z,5.80
2022-12-15T02:40:07.590Z,6.13
2022-12-15T02:42:37.171Z,7.57
2022-12-15T02:45:09.506Z,6.82
2022-12-15T19:52:58.323Z,7.18
2022-12-15T19:55:33.852Z,7.38
2022-12-15T19:58:11.605Z,5.15
2022-12-15T20:00:39.607Z,7.68
2022-12-15T20:03:06.344Z,6.53
2022-12-15T20:05:33.162Z,7.95
2022-12-15T20:08:00.120Z,5.70
2022-12-15T20:10:32.297Z,7.20
2022-12-15T20:13:00.911Z,6.32
2022-12-15T20:15:28.136Z,7.15
2022-12-15T20:17:58.117Z,7.68
2022-12-15T20:20:27.741Z,7.00
2022-12-15T20:22:56.655Z,7.53
2022-12-15T20:25:37.371Z,7.95
2022-12-15T20:28:10.258Z,8.23
2022-12-15T20:30:37.991Z,7.80
2022-12-15T20:33:05.317Z,7.13
2022-12-15T20:35:34.679Z,5.72
2022-12-15T20:38:06.202Z,6.38
2022-12-15T20:40:33.070Z,7.13
2022-12-15T20:42:59.683Z,7.78
2022-12-15T20:45:28.033Z,8.50
2022-12-15T20:47:56.063Z,8.52
2022-12-15T20:50:39.068Z,9.73
2022-12-15T20:53:22.316Z,10.10
2022-12-15T20:55:51.049Z,9.68
2022-12-15T20:58:18.493Z,5.68
2022-12-15T21:00:46.098Z,7.30
2022-12-15T21:03:29.982Z,8.27
2022-12-15T21:05:58.777Z,8.52
2022-12-15T21:08:28.020Z,7.60
2022-12-15T21:10:59.910Z,7.32
2022-12-15T21:13:30.327Z,8.85
2022-12-15T21:15:57.270Z,8.25
2022-12-15T21:21:18.794Z,8.00
2022-12-15T21:23:46.558Z,9.30
2022-12-15T21:26:18.427Z,9.10
2022-12-15T21:28:45.098Z,8.27
2022-12-15T21:31:12.180Z,7.78
2022-12-15T21:33:38.774Z,8.30
2022-12-15T21:36:05.666Z,5.88
2022-12-15T21:38:37.725Z,7.60
2022-12-15T21:41:07.397Z,7.15
2022-12-15T21:43:35.872Z,8.65
2022-12-15T21:46:10.448Z,7.53
2022-12-15T21:48:55.515Z,8.18
2022-12-15T21:51:23.797Z,8.70
2022-12-15T21:53:51.139Z,7.60
2022-12-15T21:56:20.313Z,8.38
2022-12-15T21:58:54.791Z,7.55
2022-12-15T22:01:30.558Z,7.57
2022-12-15T22:04:02.870Z,6.85
2022-12-15T22:06:30.773Z,5.47
2022-12-15T22:08:58.763Z,8.30
2022-12-15T22:11:28.350Z,6.90
2022-12-15T22:13:57.072Z,7.88
2022-12-15T22:16:23.970Z,7.25
2022-12-15T22:18:54.967Z,6.85
2022-12-15T22:21:22.208Z,7.40
2022-12-15T22:23:48.818Z,7.25
2022-12-15T22:26:34.317Z,8.07
2022-12-15T22:29:02.023Z,8.85
2022-12-15T22:31:29.441Z,7.13
2022-12-15T22:33:56.084Z,8.02
2022-12-15T22:36:22.650Z,7.05
2022-12-15T22:38:49.225Z,7.68
2022-12-15T22:41:23.220Z,7.35
2022-12-15T22:43:55.172Z,7.57
2022-12-15T22:46:24.334Z,7.55
2022-12-15T22:48:52.889Z,7.50
2022-12-15T22:51:21.726Z,8.82
2022-12-15T22:53:49.145Z,7.22
2022-12-15T22:56:21.094Z,8.30
2022-12-15T22:58:50.142Z,8.43
2022-12-15T23:01:19.154Z,7.80
2022-12-15T23:03:45.801Z,9.05
2022-12-15T23:06:12.590Z,8.32
2022-12-15T23:08:39.116Z,8.02
2022-12-15T23:11:24.247Z,7.63
2022-12-15T23:13:50.782Z,7.90
2022-12-15T23:16:21.619Z,8.13
2022-12-15T23:18:53.666Z,8.38
2022-12-15T23:21:22.568Z,8.73
2022-12-15T23:23:49.504Z,7.03
2022-12-15T23:26:19.278Z,6.95
2022-12-15T23:28:46.283Z,8.45
2022-12-15T23:31:13.027Z,8.27
2022-12-15T23:33:41.794Z,6.00
2022-12-15T23:36:09.891Z,7.35
2022-12-15T23:38:36.519Z,6.45
2022-12-15T23:41:03.217Z,6.15
2022-12-15T23:43:32.842Z,7.30
2022-12-15T23:46:03.171Z,6.97
2022-12-15T23:48:32.289Z,5.20
2022-12-15T23:51:24.445Z,7.30
2022-12-15T23:53:52.331Z,4.63
2022-12-15T23:56:24.113Z,4.78
2022-12-15T23:58:56.600Z,4.28
